Date,TemperatureHighF,TemperatureAvgF,TemperatureLowF,DewpointHighF,DewpointAvgF,DewpointLowF,HumidityHigh,HumidityAvg,HumidityLow,PressureMaxIn,PressureMinIn,WindSpeedMaxMPH,WindSpeedAvgMPH,GustSpeedMaxMPH,PrecipitationSumIn
2012-1-1,19.0,15.2,11.3,12.2,2.3,0.2,83,56,52,29.65,29.32,26,5,26,0.00
2012-1-2,23.7,20.5,15.8,14.7,7.7,4.0,82,57,50,29.32,29.32,101,3,101,0.00
2012-1-3,24.4,21.6,17.2,18.2,11.3,1.5,81,64,47,29.32,29.09,20,5,20,0.00
2012-1-4,31.6,20.5,16.3,25.6,2.6,-5.1,84,46,27,29.15,29.09,26,3,26,0.00
2012-1-5,28.8,19.9,10.4,24.6,8.8,-7.2,89,64,38,29.38,29.09,15,2,15,0.00
2012-1-6,24.6,17.6,10.2,23.0,4.9,-6.9,94,58,44,29.44,28.97,17,2,17,0.00
2012-1-7,32.5,26.4,23.7,32.0,23.5,15.9,98,89,71,28.97,28.50,25,6,25,0.00
2012-1-8,24.4,19.0,16.0,16.4,4.5,-3.9,77,53,37,29.71,28.70,38,7,38,0.00
2012-1-9,33.3,24.2,12.7,32.6,15.6,-3.3,98,73,37,29.88,29.41,30,4,30,0.00
2012-1-10,38.8,36.7,33.1,38.3,36.1,32.6,98,97,93,29.41,28.88,30,6,30,0.00
2012-1-11,35.8,31.1,22.1,35.3,27.1,8.4,98,86,55,29.38,29.18,10,0,10,0.00
2012-1-12,22.1,13.8,8.8,8.4,0.5,-3.5,57,55,50,29.77,29.38,27,6,27,0.00
2012-1-13,19.4,16.2,9.7,1.4,-2.3,-6.4,57,44,35,30.24,29.74,28,6,28,0.00
2012-1-14,24.3,20.7,16.0,12.3,6.6,0.1,64,54,43,30.45,30.24,13,3,13,0.00
2012-1-15,27.3,24.2,22.1,10.6,4.8,0.2,58,43,35,30.47,30.45,21,5,21,0.00
2012-1-16,26.8,24.2,20.5,8.6,6.0,3.4,58,45,39,30.47,30.30,15,5,15,0.00
2012-1-17,28.6,24.7,21.2,26.7,15.3,6.2,97,68,49,30.30,30.03,17,4,17,0.00
2012-1-18,29.5,24.8,20.3,26.3,20.6,11.3,98,84,67,30.06,29.80,13,3,13,0.00
2012-1-19,28.8,23.1,16.9,25.5,15.6,9.5,90,73,61,29.80,29.18,15,5,15,0.00
2012-1-20,27.7,24.0,20.8,25.0,10.7,3.9,90,58,40,29.18,29.00,24,6,24,0.00
2012-1-21,25.5,21.8,18.5,7.1,4.1,1.1,55,46,36,29.00,28.35,14,3,14,0.00
2012-1-22,21.7,18.4,15.6,12.4,7.4,4.2,72,62,55,28.50,28.35,8,2,8,0.00
2012-1-23,24.6,16.6,5.7,12.5,6.4,-1.0,75,64,52,28.76,28.50,15,1,15,0.00
2012-1-24,27.9,21.9,16.9,20.1,13.5,6.4,85,70,52,28.61,28.50,17,6,17,0.00
2012-1-25,16.9,11.5,5.0,7.5,1.1,-5.8,66,62,60,29.21,28.53,16,4,16,0.00
2012-1-26,9.7,5.3,0.7,-1.4,-5.6,-9.9,60,60,60,29.68,29.21,15,3,15,0.00
2012-1-27,16.9,10.4,1.2,9.3,-0.2,-9.4,75,62,55,29.77,29.59,6,1,6,0.00
2012-1-28,25.9,21.0,14.5,18.6,13.0,3.5,81,71,61,29.59,29.23,16,6,16,0.00
2012-1-29,26.1,23.5,21.2,24.3,17.7,15.0,93,78,70,29.23,28.91,12,3,12,0.00
2012-1-30,33.8,30.4,26.1,32.5,29.1,24.3,98,95,85,28.91,28.82,13,4,13,0.00
2012-1-31,36.1,30.1,22.3,32.7,26.9,19.3,94,88,79,29.09,28.91,12,1,12,0.00
2012-2-1,35.8,34.1,32.9,35.3,33.4,32.1,98,97,94,29.06,28.02,20,6,20,0.00
2012-2-2,34.5,28.1,19.8,33.7,23.0,10.1,98,82,65,29.03,28.17,24,3,24,0.00
2012-2-3,25.9,19.2,10.9,10.1,3.7,-1.9,65,51,36,29.62,28.85,0,0,0,0.00
2012-2-4,36.9,29.8,10.9,36.2,20.4,0.5,98,69,49,29.74,29.47,21,6,21,0.00
2012-2-5,37.2,36.6,36.0,36.5,35.7,33.5,98,96,90,29.47,29.29,26,9,26,0.00
2012-2-6,37.8,36.4,34.7,37.2,35.9,34.2,98,98,97,29.65,29.47,15,2,15,0.00
2012-2-7,38.3,36.7,35.1,36.0,34.3,31.9,98,91,78,29.65,29.35,15,4,15,0.00
2012-2-8,38.3,37.4,35.6,37.8,36.5,33.5,98,96,84,29.35,28.88,20,7,32,0.00
2012-2-9,38.3,36.3,32.4,36.1,34.0,29.7,98,91,75,29.29,29.03,30,6,30,0.00
2012-2-10,38.7,34.4,30.9,38.2,32.5,28.9,98,93,73,29.26,29.18,13,2,116,0.00
2012-2-11,37.8,36.2,34.9,36.5,34.2,29.0,98,92,71,29.21,28.73,28,9,28,0.00
2012-2-12,36.9,34.9,31.6,35.4,30.8,22.5,98,86,59,28.73,28.73,26,6,26,0.00
2012-2-13,43.9,34.5,28.0,33.2,24.4,13.6,96,69,42,29.38,28.73,27,2,27,0.00
2012-2-14,36.7,30.3,22.5,33.3,27.0,17.1,98,88,63,29.50,29.15,19,4,19,0.00
2012-2-15,42.3,36.0,32.9,41.6,34.2,31.1,98,93,85,29.29,28.91,18,2,18,0.00
2012-2-16,37.0,35.7,33.4,36.5,34.0,28.7,98,94,72,29.26,29.03,19,4,19,0.00
2012-2-17,42.4,33.2,28.6,38.5,29.6,26.6,98,87,67,29.47,29.03,12,3,12,0.00
2012-2-18,37.4,34.2,31.8,36.6,33.2,29.7,98,96,88,29.44,29.00,16,4,16,0.00
2012-2-19,38.8,35.1,33.6,38.3,34.4,32.5,98,97,95,29.23,28.79,15,2,15,0.00
2012-2-20,38.5,34.4,32.7,35.8,31.6,26.6,98,90,72,28.85,28.29,11,1,14,0.00
2012-2-21,37.2,31.6,26.1,29.5,21.7,16.5,90,68,43,29.44,28.85,9,0,9,0.00
2012-2-22,43.0,31.7,25.2,33.6,19.7,11.9,96,62,44,29.91,29.44,13,1,13,0.00
2012-2-23,37.9,26.4,21.0,15.0,9.7,5.6,70,50,32,30.03,29.91,0,0,0,0.00
2012-2-24,38.3,27.7,19.0,16.2,10.4,6.0,66,49,32,30.09,29.97,0,0,0,0.00
2012-2-25,37.4,32.7,28.6,33.9,26.3,15.1,88,78,56,29.97,29.77,15,2,15,0.00
2012-2-26,42.3,35.9,31.6,32.8,29.3,22.8,92,77,57,29.77,29.12,17,4,17,0.00
2012-2-27,34.2,29.9,21.2,26.6,16.6,4.6,82,58,45,29.26,29.09,25,3,25,0.00
2012-2-28,22.5,18.4,14.4,6.6,2.3,-1.7,62,49,43,29.44,29.23,33,4,33,0.00
2012-2-29,25.7,18.8,12.2,8.9,3.6,-3.3,64,51,41,29.47,29.35,14,2,14,0.00
2012-3-1,38.5,28.5,19.0,32.2,22.0,8.9,97,77,64,29.35,29.00,11,1,11,0.00
2012-3-2,35.1,29.1,21.4,29.1,20.5,9.9,93,71,52,29.12,29.03,0,0,0,0.00
2012-3-3,27.9,17.8,7.0,13.2,2.1,-9.9,72,50,38,29.62,29.12,0,0,0,0.00
2012-3-4,30.2,19.6,7.3,10.6,3.4,-9.5,74,49,41,29.88,29.59,0,0,0,0.00
2012-3-5,35.1,26.3,14.0,28.9,21.0,7.2,90,80,74,29.91,29.62,0,0,0,0.00
2012-3-6,36.3,32.1,23.9,32.2,18.9,13.1,95,60,41,29.74,29.65,11,0,11,0.00
2012-3-7,38.1,28.7,19.2,23.7,15.5,12.9,81,59,41,29.71,29.62,8,3,8,0.00
2012-3-8,30.9,25.8,21.7,18.2,11.7,7.0,72,55,43,29.62,28.91,17,2,17,0.00
2012-3-9,33.8,25.3,21.2,12.3,6.9,2.4,56,45,34,29.21,28.91,25,3,25,0.00
2012-3-10,27.1,21.3,15.8,10.2,2.9,-2.2,62,45,35,29.21,29.06,22,4,22,0.00
2012-3-11,27.3,20.1,15.4,6.7,2.1,-2.1,51,45,41,29.23,29.03,28,5,28,0.00
2012-3-12,30.4,22.3,16.9,16.6,6.8,1.7,66,51,41,29.26,28.85,22,4,22,0.00
2012-3-13,31.8,25.2,20.5,16.4,13.8,10.4,80,63,45,28.85,28.73,13,3,13,0.00
2012-3-14,37.9,29.0,19.8,28.4,21.0,12.8,89,73,48,28.76,28.73,11,1,11,0.00
2012-3-15,32.2,26.6,19.0,27.0,18.2,7.8,89,71,52,28.94,28.70,16,3,16,0.00
2012-3-16,28.4,19.5,12.6,7.8,4.1,-0.5,63,51,41,29.23,28.94,14,4,14,0.00
2012-3-17,31.3,22.6,12.6,12.9,8.4,-0.4,72,54,44,29.41,29.23,17,3,17,0.00
2012-3-18,30.6,25.8,23.4,17.6,14.1,11.5,71,61,51,29.44,29.35,11,2,11,0.00
2012-3-19,32.7,26.4,22.8,16.5,14.3,10.9,74,60,46,29.41,29.32,15,4,15,0.00
2012-3-20,26.2,21.7,16.5,10.9,6.7,0.8,66,52,44,29.41,29.26,17,6,17,0.00
2012-3-21,30.9,22.4,17.1,9.9,6.0,3.3,57,49,38,29.65,29.32,17,3,17,0.00
2012-3-22,35.6,24.0,13.5,14.7,9.2,4.2,71,54,41,29.88,29.65,11,1,11,0.00
2012-3-23,33.8,28.6,21.4,32.1,22.2,10.4,96,77,62,29.85,29.38,23,6,23,0.00
2012-3-24,39.7,34.3,31.1,29.1,25.0,22.1,85,69,51,29.62,29.38,12,2,12,0.00
2012-3-25,38.8,33.1,27.3,23.9,20.4,18.0,78,60,45,29.62,29.44,14,2,14,0.00
2012-3-26,37.2,32.6,25.3,33.3,27.0,19.8,93,80,64,29.44,29.18,11,1,11,0.00
2012-3-27,36.9,35.3,33.1,36.3,33.8,30.4,98,94,81,29.18,28.82,14,2,14,0.00
2012-3-28,40.5,36.4,33.1,39.4,35.3,0.0,98,96,83,28.82,28.64,183,2,183,0.00
2012-3-29,38.7,36.5,35.6,37.9,36.0,35.1,98,98,96,28.76,28.64,183,2,183,0.00
2012-3-30,49.8,41.3,35.4,41.7,31.9,27.5,98,72,45,29.15,28.76,12,3,12,0.00
2012-3-31,41.5,37.4,33.6,35.3,31.6,26.9,94,80,57,29.38,29.15,10,1,10,0.00
2012-4-1,43.2,36.5,32.4,33.4,30.1,23.8,94,79,50,29.44,29.38,10,1,10,0.00
2012-4-2,42.1,36.3,32.5,30.4,24.5,16.2,86,64,43,29.41,29.23,17,2,17,0.00
2012-4-3,50.4,38.0,28.9,26.0,19.3,13.5,74,48,29,29.56,29.32,13,1,13,0.00
2012-4-4,45.7,36.9,29.5,36.5,30.4,22.4,92,78,60,29.65,29.56,15,1,17,0.00
2012-4-5,42.8,38.8,33.3,37.7,35.1,29.1,94,87,71,29.80,29.65,17,4,22,0.00
2012-4-6,41.4,34.6,31.1,32.7,27.5,21.5,94,76,48,29.85,29.80,5,0,5,0.00
2012-4-7,46.2,37.5,29.5,33.1,26.2,21.6,87,65,42,30.21,29.85,0,0,0,0.00
2012-4-8,39.9,35.5,30.9,30.8,27.1,22.1,85,72,52,30.18,29.88,18,4,20,0.00
2012-4-9,42.4,38.4,34.5,39.7,31.1,28.5,90,76,62,29.88,29.74,15,2,15,0.00
2012-4-10,38.1,36.4,35.4,32.3,29.0,21.9,87,75,53,29.74,29.53,14,2,14,0.00
2012-4-11,45.9,38.9,34.0,31.1,26.3,20.0,86,63,40,29.65,29.56,11,2,11,0.00
2012-4-12,55.6,43.8,33.3,28.1,24.1,20.1,76,49,28,29.68,29.65,8,1,8,0.00
2012-4-13,50.2,37.8,30.0,36.2,30.1,25.0,98,75,45,29.71,29.56,11,1,11,0.00
2012-4-14,39.2,38.3,36.0,38.7,36.6,33.6,98,94,80,29.56,29.15,19,6,19,0.00
2012-4-15,40.3,38.7,37.2,39.1,37.7,36.7,98,96,90,29.32,29.18,14,6,14,0.00
2012-4-16,39.4,38.2,37.2,38.7,37.5,36.5,98,97,95,29.41,29.29,15,4,15,0.00
2012-4-17,42.3,38.8,37.0,40.5,37.1,34.9,98,94,77,29.53,29.41,9,0,9,0.00
2012-4-18,42.8,38.9,37.4,40.3,37.9,36.3,98,96,85,29.53,29.50,13,1,13,0.00
2012-4-19,43.5,40.4,38.5,38.2,35.4,31.5,98,83,64,29.50,29.44,12,3,12,0.00
2012-4-20,59.7,47.0,34.0,45.8,29.6,0.0,96,56,30,29.59,29.44,11,1,11,0.00
2012-4-21,50.7,43.2,34.0,30.8,26.7,23.8,83,54,38,29.80,29.59,10,0,10,0.00
2012-4-22,45.3,41.6,36.0,35.0,29.8,27.1,80,63,51,29.80,29.71,8,0,8,0.00
2012-4-23,42.3,38.3,36.9,33.8,29.4,24.8,88,71,53,29.71,29.56,13,3,13,0.00
2012-4-24,45.5,40.5,35.8,33.9,28.8,22.1,89,64,41,29.65,29.50,14,4,14,0.00
2012-4-25,58.8,46.9,32.5,27.7,23.6,20.1,78,44,26,29.62,29.47,17,3,17,0.00
2012-4-26,60.4,49.0,39.6,30.2,23.6,19.3,68,38,25,29.47,29.32,15,2,15,0.00
2012-4-27,44.1,38.8,35.4,37.2,32.9,27.0,94,80,53,29.50,29.38,8,0,8,0.00
2012-4-28,40.8,39.2,37.8,39.8,37.9,35.7,98,95,91,29.47,29.26,12,2,12,0.00
2012-4-29,47.8,41.3,36.9,39.0,35.4,28.0,97,81,52,29.44,29.23,13,2,13,0.00
2012-4-30,62.4,48.9,39.4,32.3,27.0,22.6,68,44,27,29.53,29.44,15,2,15,0.00
2012-5-1,56.1,42.4,35.4,25.8,18.7,10.4,62,40,29,29.53,29.50,20,5,20,0.00
2012-5-2,51.6,40.7,33.6,25.6,19.4,10.0,62,43,34,29.59,29.50,22,2,22,0.00
2012-5-3,47.5,38.1,31.1,35.8,29.0,22.0,94,71,46,29.59,29.38,9,1,9,0.00
2012-5-4,46.9,39.4,36.3,35.6,33.3,29.4,93,80,53,29.56,29.47,9,0,9,0.00
2012-5-5,51.6,40.9,36.7,36.6,31.3,21.7,94,72,37,29.56,29.35,10,2,10,0.00
2012-5-6,52.7,42.8,36.1,39.2,33.4,27.4,96,72,48,29.44,29.23,15,2,15,0.00
2012-5-7,45.7,40.0,35.1,36.2,29.0,21.7,89,66,43,29.56,29.44,13,2,13,0.00
2012-5-8,58.8,47.3,36.3,29.8,24.4,19.8,66,41,30,29.50,29.41,14,3,14,0.00
2012-5-9,49.6,38.5,33.3,38.8,31.8,22.9,93,78,38,29.47,29.41,24,5,24,0.00
2012-5-10,49.8,41.2,35.8,34.6,30.7,27.8,82,67,47,29.41,29.00,12,2,12,0.00
2012-5-11,57.6,43.5,34.2,33.5,30.4,26.4,89,63,32,29.29,29.03,14,4,14,0.00
2012-5-12,50.2,41.3,36.1,39.5,31.7,23.9,89,71,38,29.41,29.26,10,1,10,0.00
2012-5-13,45.9,34.9,30.9,30.1,26.4,23.7,90,71,46,29.77,29.38,10,1,10,0.00
2012-5-14,57.2,44.6,34.2,29.5,24.9,19.3,75,47,28,30.03,29.77,13,2,13,0.00
2012-5-15,61.3,44.1,30.7,35.9,28.0,25.4,86,57,28,30.15,30.03,14,1,14,0.00
2012-5-16,59.7,47.4,34.0,32.3,29.4,25.6,79,52,34,30.15,30.06,17,4,17,0.00
2012-5-17,43.3,41.0,39.0,39.3,36.3,31.0,92,83,70,30.06,29.80,13,3,13,0.00
2012-5-18,40.3,39.3,38.3,38.4,36.7,35.1,95,90,88,29.80,29.53,11,3,11,0.00
2012-5-19,40.8,40.3,39.9,40.1,39.7,38.9,98,98,96,29.53,29.47,12,3,12,0.00
2012-5-20,46.2,43.0,40.5,39.1,36.4,32.8,89,78,64,29.56,29.47,9,2,10,0.00
2012-5-21,49.3,44.0,40.5,43.9,41.1,36.9,98,90,70,29.47,29.38,14,3,15,0.00
2012-5-22,54.5,48.2,41.5,48.8,40.1,34.9,95,76,49,29.65,29.41,8,0,8,0.00
2012-5-23,62.2,53.1,45.0,54.6,41.5,34.4,95,68,40,29.83,29.65,6,0,6,0.00
2012-5-24,70.9,52.6,40.1,45.5,36.9,30.7,92,60,34,29.88,29.80,8,0,8,0.00
2012-5-25,44.6,42.9,42.1,42.8,42.1,41.1,98,97,91,29.50,29.38,13,4,13,0.00
2012-5-26,58.3,48.8,41.0,41.6,36.5,31.7,98,65,39,29.47,29.41,13,3,13,0.00
2012-5-27,57.9,48.9,42.8,45.2,39.4,35.7,86,70,48,29.71,29.47,5,0,5,0.00
2012-5-28,45.1,44.4,43.5,41.7,40.5,35.2,90,86,68,29.71,29.59,4,0,9,0.00
2012-6-24,55.8,55.6,55.6,40.6,40.6,40.6,57,57,57,29.44,29.44,0,0,0,0.00
2012-7-14,49.5,48.2,47.5,47.2,45.8,44.2,97,91,82,29.97,29.77,17,7,17,0.04
2012-7-15,63.9,53.7,48.0,52.9,46.5,41.0,98,79,47,30.00,29.62,14,1,15,0.08
2012-7-16,73.6,55.9,42.4,52.2,38.2,33.5,91,55,30,30.12,30.00,9,1,9,0.00
2012-7-17,60.3,52.5,45.9,44.7,40.0,35.6,80,64,42,30.06,29.80,8,0,8,0.00
2012-7-18,58.6,51.8,48.2,46.0,42.9,37.8,89,73,53,29.85,29.74,15,3,15,0.00
2012-7-19,73.8,57.3,45.5,60.0,43.6,38.3,93,65,34,29.88,29.77,7,0,7,0.00
2012-7-20,66.0,56.4,50.7,53.5,48.8,44.3,86,76,50,29.77,29.62,3,0,3,0.00
2012-7-21,65.7,57.5,52.5,54.6,49.4,44.0,94,76,51,29.62,29.59,6,0,6,0.24
2012-7-22,63.0,58.2,53.4,46.8,44.0,40.7,77,60,50,29.85,29.74,8,0,8,0.00
2012-7-23,59.9,54.3,51.3,49.5,47.1,44.7,88,77,57,29.94,29.85,8,0,8,0.08
2012-7-24,59.9,51.6,48.7,50.7,47.5,44.0,96,86,57,30.09,29.97,8,0,8,0.12
2012-7-25,69.3,58.1,47.1,51.2,44.9,40.7,91,65,41,30.09,29.94,0,0,0,0.00
2012-7-26,59.9,55.7,51.4,51.5,48.0,44.9,90,76,60,29.85,29.80,0,0,0,0.00
2012-7-27,76.1,60.0,49.6,56.0,46.3,41.5,90,64,33,29.80,29.71,0,0,0,0.00
2012-7-28,67.5,55.8,48.7,54.8,46.4,41.4,89,73,43,29.80,29.74,14,2,14,0.00
2012-7-29,53.4,51.6,50.5,48.3,46.8,45.5,92,84,78,29.59,29.56,13,7,16,0.12
2012-7-30,61.5,52.9,50.4,53.6,49.7,45.9,98,90,60,29.65,29.44,13,3,16,0.16
2012-7-31,57.6,53.1,50.4,51.1,48.5,45.2,96,85,66,29.71,29.65,6,1,6,0.04
2012-8-1,59.0,54.4,50.0,52.8,49.9,47.3,94,85,68,29.50,29.38,14,2,14,0.08
2012-8-2,46.8,46.7,46.6,44.8,44.8,44.7,93,93,93,29.59,29.59,0,0,0,0.00
2012-8-3,64.2,62.3,60.6,39.4,37.5,35.9,41,40,38,29.91,29.91,4,1,6,0.00
2012-8-5,51.4,49.7,48.0,48.3,46.5,42.9,97,89,73,29.65,29.59,13,2,13,0.59
2012-8-6,59.4,55.2,51.3,48.8,44.2,41.2,85,67,52,29.68,29.59,13,1,13,0.04
2012-8-7,55.4,51.8,50.2,50.1,48.4,45.9,94,88,73,29.74,29.71,10,1,10,0.04
2012-8-8,64.9,57.0,50.2,52.7,45.6,40.8,95,68,46,29.71,29.62,7,0,8,0.00
2012-8-9,62.2,55.3,50.2,50.4,47.3,42.6,87,75,54,29.83,29.68,6,1,8,0.00
2012-8-10,57.9,54.4,51.4,50.0,48.1,45.6,90,80,66,29.88,29.85,8,1,11,0.00
2012-8-11,54.1,52.7,51.1,52.0,50.8,49.1,98,93,84,29.88,29.85,8,2,13,0.12
2012-8-12,54.7,52.5,51.4,53.4,51.5,50.4,98,96,89,29.85,29.77,8,2,13,0.20
2012-8-13,57.4,53.4,51.8,52.3,50.4,47.3,98,90,72,29.88,29.77,9,1,10,0.12
2012-8-14,52.9,51.8,51.3,52.3,50.8,48.4,98,97,88,29.88,29.77,9,2,13,0.43
2012-8-15,63.9,55.1,50.9,59.9,48.1,41.8,98,79,48,29.88,29.80,8,1,13,0.47
2012-8-16,54.5,52.2,50.7,51.6,49.4,46.2,95,90,84,29.85,29.74,6,0,13,0.04
2012-8-17,57.9,52.4,47.8,51.5,48.1,44.5,95,86,64,29.74,29.68,6,0,13,19.08
2012-8-18,54.9,50.0,44.4,49.4,45.8,42.4,95,86,68,29.68,29.62,14,3,14,0.08
2012-8-19,64.9,55.6,50.4,52.4,48.4,43.8,95,78,52,29.65,29.59,11,1,14,19.38
2012-8-20,66.9,55.3,49.6,54.1,45.5,37.1,92,72,44,29.80,29.62,5,0,10,0.04
2012-8-21,70.9,55.4,44.1,53.2,39.4,33.6,90,59,32,29.88,29.80,14,1,14,0.04
2012-8-22,61.9,51.0,43.5,49.2,43.6,39.1,90,77,45,29.85,29.44,13,1,13,0.16
2012-8-23,63.9,54.9,50.5,54.0,44.7,37.3,93,71,45,29.62,29.41,17,2,17,0.12
2012-8-24,68.9,56.6,47.3,48.2,43.8,37.9,87,64,37,29.83,29.62,20,1,20,0.00
2012-8-25,67.6,58.1,45.3,52.5,44.6,41.0,93,64,39,29.88,29.80,6,0,6,0.00
2012-8-26,71.8,60.7,50.5,60.0,50.1,41.6,90,71,35,29.88,29.62,6,0,6,0.00
2012-8-27,68.0,60.9,55.0,57.5,45.2,29.1,90,61,30,29.80,29.59,31,4,31,0.00
2012-8-28,72.3,60.1,50.0,39.9,33.9,28.5,64,38,29,29.91,29.80,23,2,23,0.00
2012-8-29,73.6,57.3,45.3,47.9,41.9,34.6,81,59,33,29.88,29.68,8,0,8,0.00
2012-8-30,56.3,53.9,48.2,52.6,48.8,44.2,93,83,73,29.71,29.44,15,2,15,0.35
2012-8-31,59.5,52.6,46.9,48.2,45.4,40.1,96,78,51,29.56,29.44,8,0,8,0.04
2012-9-1,67.6,52.1,44.1,47.1,40.0,31.0,90,67,33,29.50,29.41,10,0,10,0.04
2012-9-2,54.1,51.0,45.1,52.2,46.8,38.0,94,86,76,29.50,29.26,16,2,16,0.12
2012-9-3,69.1,56.7,43.5,49.5,40.3,33.0,89,58,33,29.71,29.26,16,3,16,0.00
2012-9-4,54.5,49.3,42.6,51.7,43.9,35.6,94,82,69,29.71,29.38,17,5,17,0.20
2012-9-5,64.6,53.1,49.5,46.2,41.5,37.5,82,66,42,29.71,29.41,17,4,17,0.04
2012-9-6,65.3,54.9,41.2,45.3,36.2,30.2,95,52,33,30.00,29.88,9,1,9,0.04
2012-9-7,57.4,48.4,39.2,43.3,37.2,33.9,85,67,48,29.94,29.59,10,1,10,0.04
2012-9-8,52.2,47.7,44.2,41.3,36.2,27.7,82,65,45,29.62,29.53,28,3,28,0.04
2012-9-9,61.5,53.6,42.3,33.2,28.8,25.3,60,39,29,29.68,29.56,24,5,28,0.04
2012-9-10,62.4,47.1,37.4,42.8,34.5,28.3,79,64,36,29.68,29.59,8,0,8,0.00
2012-9-11,51.8,49.2,46.9,51.1,46.5,40.7,98,91,76,29.59,29.32,6,0,6,0.24
2012-9-12,53.8,49.2,42.6,49.4,42.1,37.4,97,78,58,29.59,29.32,6,1,6,0.04
2012-9-13,65.7,51.1,40.5,50.8,39.8,34.1,95,68,37,29.65,29.59,6,0,6,0.04
2012-9-14,58.8,50.2,44.6,46.9,42.2,37.5,86,74,61,29.62,29.50,17,2,17,0.04
2012-9-15,53.4,50.8,49.5,52.0,47.8,44.2,97,90,82,29.56,29.12,33,7,33,0.31
2012-9-16,53.1,50.2,43.5,50.5,40.1,33.5,93,69,53,29.32,29.12,26,7,26,0.04
2012-9-17,58.5,49.3,41.9,47.6,39.3,33.5,92,70,44,29.74,29.32,22,5,22,0.20
2012-9-18,59.2,52.3,49.3,49.5,48.0,45.9,94,86,64,29.53,29.38,16,6,16,0.24
2012-9-19,56.5,52.4,49.1,52.9,50.0,46.1,98,92,80,29.44,29.15,25,4,25,1.26
2012-9-20,56.8,51.3,47.8,53.8,48.7,46.5,95,91,80,29.47,29.38,9,1,9,0.24
2012-9-21,51.6,49.0,43.5,51.1,48.2,42.2,98,97,93,29.53,29.09,10,2,10,1.65
2012-9-22,53.6,50.5,48.0,51.4,49.4,47.4,98,96,83,29.12,28.94,15,1,15,0.71
2012-9-23,59.2,51.5,45.5,50.7,43.9,34.1,98,78,46,29.62,29.00,13,1,13,0.08
2012-9-24,51.4,46.6,43.7,48.7,40.1,31.1,98,79,50,29.68,29.21,17,3,17,0.35
2012-9-25,52.7,48.8,45.1,52.2,45.9,39.4,98,90,74,29.29,28.79,15,2,17,0.98
2012-9-26,48.2,46.2,44.4,46.1,42.5,37.5,95,87,74,29.00,28.23,28,7,28,1.38
2012-9-27,55.0,48.2,43.5,45.0,37.5,32.1,94,68,45,28.97,28.23,20,3,21,0.04
2012-9-28,45.9,39.8,31.3,39.1,31.8,24.4,88,74,53,29.35,28.91,9,0,9,0.16
2012-9-29,45.7,35.1,28.0,38.3,30.1,24.6,91,82,60,29.62,29.35,17,0,17,0.20
2012-9-30,49.8,39.4,32.2,35.3,30.4,26.5,90,72,45,29.94,29.62,11,0,11,0.16
2012-10-1,50.9,41.3,30.4,42.9,35.2,27.0,90,80,60,30.12,29.91,12,1,12,0.16
2012-10-2,46.8,45.4,43.7,45.7,41.2,34.4,98,85,65,30.12,29.85,30,5,30,0.12
2012-10-3,49.8,47.4,45.7,49.3,46.8,45.2,98,98,95,29.94,29.68,10,1,10,1.22
2012-10-4,57.6,50.1,44.2,53.2,44.3,36.5,97,82,58,29.97,29.68,14,3,14,0.00
2012-10-5,50.2,47.2,44.6,48.0,43.7,38.5,93,88,77,30.00,29.88,8,0,8,0.75
2012-10-6,49.8,47.8,46.8,48.1,45.2,43.3,95,91,83,30.06,29.94,3,0,3,0.12
2012-10-7,57.9,50.8,46.4,51.6,47.1,44.0,97,88,64,30.06,30.00,11,2,11,0.04
2012-10-8,47.5,45.7,44.1,46.1,44.0,42.4,96,94,88,30.06,29.94,5,0,8,0.04
2012-10-9,50.9,45.7,42.1,46.2,42.5,39.5,95,89,73,29.94,29.83,0,0,0,0.00
2012-10-10,47.1,44.2,39.9,45.5,42.2,37.8,98,93,86,29.85,29.62,9,1,9,0.00
2012-10-11,46.2,45.4,44.8,45.4,44.3,41.3,98,96,85,29.65,29.21,14,2,15,0.04
2012-10-12,46.2,45.3,43.5,45.5,43.8,41.8,98,95,85,29.21,28.79,16,5,17,0.79
2012-10-13,46.4,44.2,43.0,45.9,43.1,40.9,98,96,91,28.79,28.70,17,4,17,0.35
2012-10-14,49.6,44.9,38.5,47.5,38.5,30.4,98,80,53,28.70,28.61,13,2,13,0.28
2012-10-15,39.4,35.6,31.1,35.0,28.4,11.2,89,77,43,29.00,28.67,19,2,19,0.24
2012-10-16,38.5,31.6,27.7,20.5,13.1,8.1,57,46,39,29.35,29.00,23,3,23,0.00
2012-10-17,41.2,33.0,29.3,20.2,14.5,10.8,51,46,40,29.53,29.35,15,2,15,0.00
2012-10-18,41.5,31.7,24.4,20.8,16.1,12.4,75,54,39,29.62,29.53,13,2,13,0.00
2012-10-19,41.5,34.8,30.2,19.2,15.0,12.6,50,44,39,29.88,29.62,18,3,18,0.00
2012-10-20,42.3,37.2,33.3,19.4,15.8,13.7,46,41,35,30.06,29.88,18,3,18,0.00
2012-10-21,45.1,37.1,29.3,21.7,17.8,14.8,70,46,37,30.12,30.03,14,2,14,0.00
2012-10-22,41.0,32.4,26.4,28.6,22.3,17.0,84,67,47,30.03,29.97,8,1,8,0.00
2012-10-23,40.5,33.4,26.4,26.0,20.6,17.2,82,60,43,30.00,29.94,11,1,11,0.00
2012-10-24,43.5,36.9,32.4,23.7,20.6,18.0,67,52,38,30.12,30.00,10,0,10,0.00
2012-10-25,43.9,39.3,35.6,35.5,31.9,20.8,84,75,54,30.18,30.12,15,2,15,0.04
2012-10-26,43.0,39.3,34.3,35.7,31.9,27.1,86,75,58,30.18,29.88,11,1,11,0.00
2012-10-27,42.1,37.0,32.7,34.1,28.2,22.8,90,72,48,29.91,29.77,9,1,9,0.00
2012-10-28,48.6,34.3,27.9,33.7,24.7,19.9,88,70,41,29.80,29.74,6,0,6,0.00
2012-10-29,43.5,32.1,26.6,36.1,23.9,17.9,88,73,46,29.80,29.59,13,0,13,0.00
2012-10-30,36.7,30.0,25.5,17.4,10.0,6.0,47,43,40,29.62,29.44,31,4,31,0.00
2012-10-31,34.3,28.0,23.4,16.9,10.1,5.2,61,47,41,29.44,29.29,15,2,15,0.00
2012-11-1,39.4,33.6,25.0,35.3,23.5,14.7,88,67,43,29.35,29.09,23,6,23,0.00
2012-11-2,43.3,40.4,38.8,40.8,33.4,26.8,94,76,58,29.09,28.70,36,8,36,0.00
2012-11-3,42.8,40.6,37.4,37.9,35.3,31.2,90,81,70,29.09,28.82,18,6,18,0.00
2012-11-4,40.3,36.9,31.6,33.2,28.9,21.7,87,74,49,29.18,29.06,17,2,17,0.00
2012-11-5,35.1,31.7,28.2,28.6,19.9,13.3,78,62,51,29.44,29.18,14,2,14,0.00
2012-11-6,34.3,31.6,28.6,19.9,16.4,12.0,65,53,41,29.88,29.44,24,5,24,0.00
2012-11-7,39.6,32.4,28.6,24.5,17.7,13.2,73,55,42,30.09,29.88,9,1,9,0.00
2012-11-8,42.6,39.2,32.4,42.1,37.0,24.7,98,92,73,30.06,29.85,9,0,9,0.00
2012-11-9,43.7,42.9,39.9,43.2,42.3,39.4,98,98,98,29.85,29.26,15,2,15,0.00
2012-11-10,43.2,41.3,40.1,42.6,39.5,36.0,98,93,85,29.26,29.21,16,3,16,0.00
2012-11-11,45.0,39.5,33.6,36.0,32.4,29.1,93,76,58,29.59,29.26,11,1,11,0.00
2012-11-12,43.3,34.6,30.6,41.5,31.2,27.1,98,88,54,29.80,29.59,0,0,0,0.00
2012-11-13,41.5,36.4,31.1,40.5,34.8,28.7,98,94,88,29.80,29.29,11,1,11,0.00
2012-11-14,40.8,36.2,31.6,38.8,34.8,30.6,98,95,90,29.32,29.03,0,0,0,0.00
2012-11-15,39.4,35.4,32.4,35.1,30.5,27.6,92,82,64,29.26,29.09,11,0,11,0.00
2012-11-16,37.2,34.3,29.5,31.3,21.0,11.3,89,59,43,29.35,29.21,17,4,17,0.00
2012-11-17,30.4,27.6,25.7,15.4,11.6,9.3,62,50,44,29.21,28.79,18,2,18,0.00
2012-11-18,31.1,27.1,23.5,27.8,17.0,10.3,92,66,54,28.91,28.79,17,4,17,0.00
2012-11-19,30.0,28.0,26.1,28.8,19.2,10.9,96,70,52,29.21,28.88,23,7,23,0.00
2012-11-20,29.8,27.2,24.3,26.7,18.2,12.0,90,69,54,29.29,29.21,22,6,22,0.00
2012-11-21,32.2,29.9,28.9,26.7,24.2,21.4,89,79,71,29.38,29.29,25,6,25,0.00
2012-11-22,36.1,32.8,30.4,34.0,25.0,13.7,94,74,47,29.38,29.15,24,6,24,0.00
2012-11-23,35.6,33.3,30.4,26.8,21.9,14.1,81,63,46,29.38,29.15,19,6,19,0.00
2012-11-24,35.4,33.6,29.1,33.1,29.8,25.5,91,86,71,29.68,29.38,15,1,15,0.00
2012-11-25,37.2,33.4,28.2,36.5,30.7,24.4,98,90,81,29.85,29.68,15,1,15,0.00
2012-11-26,39.2,37.0,35.4,38.7,35.1,32.4,98,93,86,29.94,29.83,12,0,12,0.00
2012-11-27,40.3,37.5,34.2,39.8,34.4,21.7,98,89,60,29.83,29.59,10,2,10,0.00
2012-11-28,38.1,35.1,32.4,21.7,17.5,13.7,60,48,41,29.62,29.35,19,5,19,0.00
2012-11-29,33.8,31.7,29.7,14.9,11.9,9.4,47,43,40,29.35,29.18,17,4,17,0.00
2012-11-30,33.3,31.3,28.6,12.7,8.7,5.3,45,38,31,29.35,29.23,15,3,15,0.00
2012-12-1,34.3,31.7,28.6,11.9,8.1,4.3,41,37,30,29.32,29.18,21,4,21,0.00
2012-12-2,30.2,27.0,21.9,8.8,5.3,3.0,47,39,32,29.18,29.03,17,3,17,0.00
2012-12-3,23.2,21.6,19.9,7.8,5.9,3.7,54,50,45,29.23,22.68,22,5,22,0.00
2012-12-4,20.3,18.6,17.4,8.9,5.6,4.4,66,56,51,29.21,29.12,22,4,22,0.00
2012-12-5,24.8,21.9,17.6,18.8,13.2,8.4,82,69,60,29.23,29.12,25,7,25,0.00
2012-12-6,29.1,25.5,23.0,16.5,12.6,5.9,75,58,47,29.62,29.23,23,4,25,0.00
2012-12-7,32.4,26.2,24.4,30.6,16.2,13.4,93,66,58,29.65,29.50,11,0,11,0.00
2012-12-8,40.3,36.3,32.4,39.6,35.7,30.6,98,97,93,29.50,28.85,15,1,15,0.00
2012-12-9,39.4,35.1,30.7,36.9,31.5,25.4,98,87,70,29.35,28.97,9,0,9,0.00
2012-12-10,36.7,33.0,29.5,32.5,24.4,13.4,94,73,45,29.62,29.29,17,1,17,0.00
2012-12-11,34.9,30.9,25.5,28.8,19.6,11.6,81,63,44,29.77,29.41,19,0,19,0.00
2012-12-12,43.0,36.9,32.5,37.1,24.9,17.0,94,65,41,29.41,29.15,33,4,33,0.00
2012-12-13,39.6,35.9,28.2,22.0,17.8,15.3,69,48,40,29.32,29.06,27,2,27,0.00
2012-12-14,33.3,30.1,25.2,22.8,18.6,14.3,77,63,50,29.06,28.94,17,1,17,0.00
2012-12-15,32.5,25.3,17.1,18.3,6.3,-8.3,57,44,27,28.97,28.94,24,4,24,0.00
2012-12-16,27.3,23.8,19.2,-0.2,-4.4,-9.7,34,28,21,29.44,28.97,32,8,32,0.00
2012-12-17,34.5,24.8,18.3,28.8,6.7,-4.4,84,47,26,29.53,29.03,22,2,22,0.00
2012-12-18,33.6,30.1,20.7,32.2,24.9,7.7,96,81,57,29.18,28.88,29,2,29,0.00
2012-12-19,23.0,20.7,17.6,7.7,5.1,2.4,59,51,43,29.59,29.18,26,2,26,0.00
2012-12-20,25.9,23.9,21.9,5.0,3.7,2.4,44,41,37,29.80,29.59,20,6,23,0.00
2012-12-21,25.0,23.7,22.8,5.8,5.2,4.0,46,44,43,29.80,29.77,13,1,13,0.00
2012-12-26,39.9,37.9,34.5,39.4,36.9,33.2,98,96,91,29.03,28.67,22,4,22,0.00
2012-12-27,39.6,38.7,37.6,39.0,37.7,36.4,98,96,92,28.94,28.70,10,0,10,0.00
2012-12-28,40.1,37.8,34.2,39.3,37.0,33.7,98,97,89,29.23,28.82,27,4,27,0.00
2012-12-29,41.2,39.1,37.4,40.7,35.1,30.5,98,86,75,29.15,28.50,31,7,31,0.00
2012-12-30,41.5,39.2,37.0,41.0,36.6,31.8,98,90,80,29.09,28.26,22,6,22,0.00
2012-12-31,40.6,38.5,35.8,39.3,32.7,27.1,95,80,62,29.29,28.88,31,6,31,0.00
2013-1-1,39.7,37.0,35.1,35.5,33.1,28.6,91,86,65,29.00,28.82,31,7,31,0.00